KGLS/GLS METAR and TAF weather

Enter ICAO airport designator
Station Type Date Time Source
KGLS METAR 2020/01/29 03:48 UTC NOAA

KGLS 290348Z 32021G29KT 10SM FEW007 BKN026 OVC075 14/13 A2992 RMK AO2 PK WND 27033/0337 WSHFT 0334 RAB35E44 CIG 015V039 P0000


Station Type Date Time Source
KGLS Decoded METAR 2020/01/29 03:48 UTC NOAA

SCHOLES FIELD, TX, United States (KGLS) 29-16N 094-52W 6M
Jan 28, 2020 - 10:48 PM EST / 2020.01.29 0348 UTC
Wind: from the NW (320 degrees) at 24 MPH (21 KT) gusting to 33 MPH (29 KT):0
Visibility: 10 mile(s):0
Sky conditions: overcast
Precipitation last hour: A trace
Temperature: 57 F (14 C)
Dew Point: 55 F (13 C)
Relative Humidity: 93%
Pressure (altimeter): 29.92 in. Hg (1013 hPa)
ob: KGLS 290348Z 32021G29KT 10SM FEW007 BKN026 OVC075 14/13 A2992 RMK AO2 PK WND 27033/0337 WSHFT 0334 RAB35E44 CIG 015V039 P0000
cycle: 4

Station Type Date Time Source
KGLS TAF 2020/01/29 03:21 UTC NOAA

TAF
AMD KGLS 290314Z 2903/2924 17007KT 1SM BR SKC
TEMPO 2903/2904 VRB03KT 1/2SM FG
FM290400 28011G19KT P6SM SCT200
FM291500 31017G25KT P6SM BKN025
FM292100 33014KT P6SM BKN035

Example: see airport list